sensor_id;sensor_type;location;lat;lon;timestamp;temperature;humidity
22532;DHT22;11432;46.924;7.114;2022-09-01T00:02:11;16.70;99.90
22532;DHT22;11432;46.924;7.114;2022-09-01T00:04:42;16.70;99.90
22532;DHT22;11432;46.924;7.114;2022-09-01T00:07:09;16.70;99.90
22532;DHT22;11432;46.924;7.114;2022-09-01T00:09:35;16.60;99.90
22532;DHT22;11432;46.924;7.114;2022-09-01T00:12:03;16.60;99.90
22532;DHT22;11432;46.924;7.114;2022-09-01T00:14:32;16.60;99.90
22532;DHT22;11432;46.924;7.114;2022-09-01T00:16:58;16.60;99.90
22532;DHT22;11432;46.924;7.114;2022-09-01T00:19:24;16.60;99.90
22532;DHT22;11432;46.924;7.114;2022-09-01T00:21:50;16.60;99.90
22532;DHT22;11432;46.924;7.114;2022-09-01T00:24:17;16.60;99.90
22532;DHT22;11432;46.924;7.114;2022-09-01T00:26:43;16.60;99.90
22532;DHT22;11432;46.924;7.114;2022-09-01T00:29:10;16.60;99.90
22532;DHT22;11432;46.924;7.114;2022-09-01T00:31:35;16.50;99.90
22532;DHT22;11432;46.924;7.114;2022-09-01T00:34:01;16.50;99.90
22532;DHT22;11432;46.924;7.114;2022-09-01T00:36:27;16.50;99.90
22532;DHT22;11432;46.924;7.114;2022-09-01T00:38:53;16.40;99.90
22532;DHT22;11432;46.924;7.114;2022-09-01T00:41:22;16.40;99.90
22532;DHT22;11432;46.924;7.114;2022-09-01T00:43:51;16.30;99.90
22532;DHT22;11432;46.924;7.114;2022-09-01T00:46:50;16.40;99.90
22532;DHT22;11432;46.924;7.114;2022-09-01T00:51:58;16.30;99.90
22532;DHT22;11432;46.924;7.114;2022-09-01T00:54:28;16.30;99.90
22532;DHT22;11432;46.924;7.114;2022-09-01T00:56:55;16.30;99.90
22532;DHT22;11432;46.924;7.114;2022-09-01T00:59:23;16.20;99.90
22532;DHT22;11432;46.924;7.114;2022-09-01T01:01:49;16.10;99.90
22532;DHT22;11432;46.924;7.114;2022-09-01T01:04:15;16.10;99.90
22532;DHT22;11432;46.924;7.114;2022-09-01T01:06:44;16.10;99.90
22532;DHT22;11432;46.924;7.114;2022-09-01T01:09:16;16.10;99.90
22532;DHT22;11432;46.924;7.114;2022-09-01T01:11:42;16.00;99.90
22532;DHT22;11432;46.924;7.114;2022-09-01T01:14:13;16.00;99.90
22532;DHT22;11432;46.924;7.114;2022-09-01T01:16:45;16.10;99.90
22532;DHT22;11432;46.924;7.114;2022-09-01T01:19:24;16.00;99.90
22532;DHT22;11432;46.924;7.114;2022-09-01T01:22:24;16.00;99.90
22532;DHT22;11432;46.924;7.114;2022-09-01T01:25:10;16.00;99.90
22532;DHT22;11432;46.924;7.114;2022-09-01T01:27:37;16.00;99.90
22532;DHT22;11432;46.924;7.114;2022-09-01T01:30:07;16.10;99.90
22532;DHT22;11432;46.924;7.114;2022-09-01T01:32:36;16.00;99.90
22532;DHT22;11432;46.924;7.114;2022-09-01T01:35:03;16.00;99.90
22532;DHT22;11432;46.924;7.114;2022-09-01T01:37:33;15.90;99.90
22532;DHT22;11432;46.924;7.114;2022-09-01T01:39:59;15.90;99.90
22532;DHT22;11432;46.924;7.114;2022-09-01T01:42:25;15.90;99.90
22532;DHT22;11432;46.924;7.114;2022-09-01T01:44:52;15.90;99.90
22532;DHT22;11432;46.924;7.114;2022-09-01T01:47:19;15.90;99.90
22532;DHT22;11432;46.924;7.114;2022-09-01T01:49:44;15.90;99.90
22532;DHT22;11432;46.924;7.114;2022-09-01T01:52:12;15.90;99.90
22532;DHT22;11432;46.924;7.114;2022-09-01T01:54:42;15.90;99.90
22532;DHT22;11432;46.924;7.114;2022-09-01T01:57:11;15.90;99.90
22532;DHT22;11432;46.924;7.114;2022-09-01T01:59:41;15.90;99.90
22532;DHT22;11432;46.924;7.114;2022-09-01T02:02:07;15.90;99.90
22532;DHT22;11432;46.924;7.114;2022-09-01T02:04:37;15.90;99.90
22532;DHT22;11432;46.924;7.114;2022-09-01T02:07:08;15.90;99.90
22532;DHT22;11432;46.924;7.114;2022-09-01T02:09:36;15.90;99.90
22532;DHT22;11432;46.924;7.114;2022-09-01T02:12:06;15.90;99.90
22532;DHT22;11432;46.924;7.114;2022-09-01T02:14:32;15.90;99.90
22532;DHT22;11432;46.924;7.114;2022-09-01T02:16:58;15.80;99.90
22532;DHT22;11432;46.924;7.114;2022-09-01T02:19:26;15.80;99.90
22532;DHT22;11432;46.924;7.114;2022-09-01T02:21:51;15.80;99.90
22532;DHT22;11432;46.924;7.114;2022-09-01T02:24:21;15.80;99.90
22532;DHT22;11432;46.924;7.114;2022-09-01T02:26:48;15.80;99.90
22532;DHT22;11432;46.924;7.114;2022-09-01T02:29:19;15.80;99.90
22532;DHT22;11432;46.924;7.114;2022-09-01T02:31:50;15.80;99.90
22532;DHT22;11432;46.924;7.114;2022-09-01T02:34:16;15.70;99.90
22532;DHT22;11432;46.924;7.114;2022-09-01T02:36:45;15.70;99.90
22532;DHT22;11432;46.924;7.114;2022-09-01T02:39:20;15.70;99.90
22532;DHT22;11432;46.924;7.114;2022-09-01T02:41:47;15.80;99.90
22532;DHT22;11432;46.924;7.114;2022-09-01T02:44:14;15.70;99.90
22532;DHT22;11432;46.924;7.114;2022-09-01T02:46:41;15.70;99.90
22532;DHT22;11432;46.924;7.114;2022-09-01T02:49:09;15.70;99.90
22532;DHT22;11432;46.924;7.114;2022-09-01T02:51:41;15.70;99.90
22532;DHT22;11432;46.924;7.114;2022-09-01T02:54:08;15.60;99.90
22532;DHT22;11432;46.924;7.114;2022-09-01T02:56:34;15.50;99.90
22532;DHT22;11432;46.924;7.114;2022-09-01T02:58:59;15.50;99.90
22532;DHT22;11432;46.924;7.114;2022-09-01T03:01:31;15.50;99.90
22532;DHT22;11432;46.924;7.114;2022-09-01T03:04:00;15.40;99.90
22532;DHT22;11432;46.924;7.114;2022-09-01T03:06:27;15.50;99.90
22532;DHT22;11432;46.924;7.114;2022-09-01T03:08:55;15.50;99.90
22532;DHT22;11432;46.924;7.114;2022-09-01T03:11:21;15.50;99.90
22532;DHT22;11432;46.924;7.114;2022-09-01T03:13:48;15.50;99.90
22532;DHT22;11432;46.924;7.114;2022-09-01T03:16:14;15.60;99.90
22532;DHT22;11432;46.924;7.114;2022-09-01T03:18:40;15.60;99.90
22532;DHT22;11432;46.924;7.114;2022-09-01T03:21:07;15.60;99.90
22532;DHT22;11432;46.924;7.114;2022-09-01T03:23:36;15.50;99.90
22532;DHT22;11432;46.924;7.114;2022-09-01T03:26:02;15.50;99.90
22532;DHT22;11432;46.924;7.114;2022-09-01T03:28:29;15.50;99.90
22532;DHT22;11432;46.924;7.114;2022-09-01T03:30:56;15.50;99.90
22532;DHT22;11432;46.924;7.114;2022-09-01T03:33:24;15.50;99.90
22532;DHT22;11432;46.924;7.114;2022-09-01T03:35:50;15.50;99.90
22532;DHT22;11432;46.924;7.114;2022-09-01T03:38:17;15.50;99.90
22532;DHT22;11432;46.924;7.114;2022-09-01T03:40:48;15.40;99.90
22532;DHT22;11432;46.924;7.114;2022-09-01T03:43:15;15.40;99.90
22532;DHT22;11432;46.924;7.114;2022-09-01T03:45:43;15.40;99.90
22532;DHT22;11432;46.924;7.114;2022-09-01T03:48:09;15.40;99.90
22532;DHT22;11432;46.924;7.114;2022-09-01T03:50:38;15.40;99.90
22532;DHT22;11432;46.924;7.114;2022-09-01T03:53:06;15.40;99.90
22532;DHT22;11432;46.924;7.114;2022-09-01T03:55:33;15.50;99.90
22532;DHT22;11432;46.924;7.114;2022-09-01T03:58:02;15.40;99.90
22532;DHT22;11432;46.924;7.114;2022-09-01T04:00:35;15.50;99.90
22532;DHT22;11432;46.924;7.114;2022-09-01T04:03:04;15.40;99.90
22532;DHT22;11432;46.924;7.114;2022-09-01T04:05:31;15.40;99.90
22532;DHT22;11432;46.924;7.114;2022-09-01T04:08:05;15.30;99.90
22532;DHT22;11432;46.924;7.114;2022-09-01T04:10:33;15.30;99.90
22532;DHT22;11432;46.924;7.114;2022-09-01T04:13:00;15.30;99.90
22532;DHT22;11432;46.924;7.114;2022-09-01T04:15:27;15.20;99.90
22532;DHT22;11432;46.924;7.114;2022-09-01T04:17:53;15.10;99.90
22532;DHT22;11432;46.924;7.114;2022-09-01T04:20:39;15.10;99.90
22532;DHT22;11432;46.924;7.114;2022-09-01T04:25:57;15.10;99.90
22532;DHT22;11432;46.924;7.114;2022-09-01T04:28:29;15.10;99.90
22532;DHT22;11432;46.924;7.114;2022-09-01T04:30:59;15.10;99.90
22532;DHT22;11432;46.924;7.114;2022-09-01T04:33:30;15.10;99.90
22532;DHT22;11432;46.924;7.114;2022-09-01T04:36:14;15.00;99.90
22532;DHT22;11432;46.924;7.114;2022-09-01T04:38:44;15.00;99.90
22532;DHT22;11432;46.924;7.114;2022-09-01T04:41:09;15.00;99.90
22532;DHT22;11432;46.924;7.114;2022-09-01T04:43:41;15.00;99.90
22532;DHT22;11432;46.924;7.114;2022-09-01T04:46:06;15.00;99.90
22532;DHT22;11432;46.924;7.114;2022-09-01T04:48:32;15.00;99.90
22532;DHT22;11432;46.924;7.114;2022-09-01T04:50:59;15.00;99.90
22532;DHT22;11432;46.924;7.114;2022-09-01T04:53:26;14.90;99.90
22532;DHT22;11432;46.924;7.114;2022-09-01T04:55:52;15.00;99.90
22532;DHT22;11432;46.924;7.114;2022-09-01T04:58:19;15.00;99.90
22532;DHT22;11432;46.924;7.114;2022-09-01T05:00:47;14.90;99.90
22532;DHT22;11432;46.924;7.114;2022-09-01T05:03:14;14.90;99.90
22532;DHT22;11432;46.924;7.114;2022-09-01T05:05:45;14.80;99.90
22532;DHT22;11432;46.924;7.114;2022-09-01T05:08:15;14.80;99.90
22532;DHT22;11432;46.924;7.114;2022-09-01T05:10:43;14.80;99.90
22532;DHT22;11432;46.924;7.114;2022-09-01T05:13:11;14.80;99.90
22532;DHT22;11432;46.924;7.114;2022-09-01T05:15:40;14.80;99.90
22532;DHT22;11432;46.924;7.114;2022-09-01T05:18:16;14.80;99.90
22532;DHT22;11432;46.924;7.114;2022-09-01T05:20:51;14.80;99.90
22532;DHT22;11432;46.924;7.114;2022-09-01T05:23:18;14.90;99.90
22532;DHT22;11432;46.924;7.114;2022-09-01T05:25:46;14.90;99.90
22532;DHT22;11432;46.924;7.114;2022-09-01T05:28:15;14.90;99.90
22532;DHT22;11432;46.924;7.114;2022-09-01T05:30:43;14.90;99.90
22532;DHT22;11432;46.924;7.114;2022-09-01T05:33:09;15.00;99.90
22532;DHT22;11432;46.924;7.114;2022-09-01T05:35:42;15.00;99.90
22532;DHT22;11432;46.924;7.114;2022-09-01T05:38:16;14.90;99.90
22532;DHT22;11432;46.924;7.114;2022-09-01T05:40:44;14.90;99.90
22532;DHT22;11432;46.924;7.114;2022-09-01T05:43:19;15.00;99.90
22532;DHT22;11432;46.924;7.114;2022-09-01T05:45:46;15.00;99.90
22532;DHT22;11432;46.924;7.114;2022-09-01T05:48:12;15.00;99.90
22532;DHT22;11432;46.924;7.114;2022-09-01T05:50:42;15.10;99.90
22532;DHT22;11432;46.924;7.114;2022-09-01T05:53:09;15.10;99.90
22532;DHT22;11432;46.924;7.114;2022-09-01T05:55:41;15.20;99.90
22532;DHT22;11432;46.924;7.114;2022-09-01T05:58:12;15.30;99.90
22532;DHT22;11432;46.924;7.114;2022-09-01T06:00:44;15.40;99.90
22532;DHT22;11432;46.924;7.114;2022-09-01T06:03:13;15.50;99.90
22532;DHT22;11432;46.924;7.114;2022-09-01T06:05:40;15.60;99.90
22532;DHT22;11432;46.924;7.114;2022-09-01T06:08:08;15.70;99.90
22532;DHT22;11432;46.924;7.114;2022-09-01T06:10:38;15.70;99.90
22532;DHT22;11432;46.924;7.114;2022-09-01T06:13:05;15.70;99.90
22532;DHT22;11432;46.924;7.114;2022-09-01T06:15:31;15.80;99.90
22532;DHT22;11432;46.924;7.114;2022-09-01T06:17:58;15.80;99.90
22532;DHT22;11432;46.924;7.114;2022-09-01T06:20:25;15.70;99.90
22532;DHT22;11432;46.924;7.114;2022-09-01T06:22:52;15.80;99.90
22532;DHT22;11432;46.924;7.114;2022-09-01T06:25:19;15.70;99.90
22532;DHT22;11432;46.924;7.114;2022-09-01T06:27:46;15.60;99.90
22532;DHT22;11432;46.924;7.114;2022-09-01T06:30:14;15.70;99.90
22532;DHT22;11432;46.924;7.114;2022-09-01T06:32:42;15.70;99.90
22532;DHT22;11432;46.924;7.114;2022-09-01T06:35:12;15.90;99.90
22532;DHT22;11432;46.924;7.114;2022-09-01T06:37:41;15.90;99.90
22532;DHT22;11432;46.924;7.114;2022-09-01T06:40:09;16.00;99.90
22532;DHT22;11432;46.924;7.114;2022-09-01T06:42:45;16.20;99.90
22532;DHT22;11432;46.924;7.114;2022-09-01T06:45:15;16.30;99.90
22532;DHT22;11432;46.924;7.114;2022-09-01T06:47:43;16.30;99.90
22532;DHT22;11432;46.924;7.114;2022-09-01T06:50:16;16.30;99.90
22532;DHT22;11432;46.924;7.114;2022-09-01T06:52:44;16.30;99.90
22532;DHT22;11432;46.924;7.114;2022-09-01T06:55:13;16.30;99.90
22532;DHT22;11432;46.924;7.114;2022-09-01T06:57:40;16.30;99.90
22532;DHT22;11432;46.924;7.114;2022-09-01T07:00:09;16.30;99.90
22532;DHT22;11432;46.924;7.114;2022-09-01T07:02:44;18.00;99.90
22532;DHT22;11432;46.924;7.114;2022-09-01T07:05:12;16.40;99.90
22532;DHT22;11432;46.924;7.114;2022-09-01T07:07:49;16.50;99.90
22532;DHT22;11432;46.924;7.114;2022-09-01T07:10:16;16.50;99.90
22532;DHT22;11432;46.924;7.114;2022-09-01T07:12:47;16.50;99.90
22532;DHT22;11432;46.924;7.114;2022-09-01T07:15:14;16.50;99.90
22532;DHT22;11432;46.924;7.114;2022-09-01T07:17:51;16.50;99.90
22532;DHT22;11432;46.924;7.114;2022-09-01T07:20:19;16.50;99.90
22532;DHT22;11432;46.924;7.114;2022-09-01T07:22:46;16.50;99.90
22532;DHT22;11432;46.924;7.114;2022-09-01T07:25:13;16.60;99.90
22532;DHT22;11432;46.924;7.114;2022-09-01T07:27:40;16.60;99.90
22532;DHT22;11432;46.924;7.114;2022-09-01T07:30:16;16.60;99.90
22532;DHT22;11432;46.924;7.114;2022-09-01T07:32:43;16.50;99.90
22532;DHT22;11432;46.924;7.114;2022-09-01T07:35:11;16.70;99.90
22532;DHT22;11432;46.924;7.114;2022-09-01T07:37:37;16.50;99.90
22532;DHT22;11432;46.924;7.114;2022-09-01T07:40:09;16.50;99.90
22532;DHT22;11432;46.924;7.114;2022-09-01T07:42:35;16.40;99.90
22532;DHT22;11432;46.924;7.114;2022-09-01T07:45:03;16.40;99.90
22532;DHT22;11432;46.924;7.114;2022-09-01T07:47:36;16.40;99.90
22532;DHT22;11432;46.924;7.114;2022-09-01T07:50:06;16.40;99.90
22532;DHT22;11432;46.924;7.114;2022-09-01T07:52:36;16.50;99.90
22532;DHT22;11432;46.924;7.114;2022-09-01T07:55:05;16.70;99.90
22532;DHT22;11432;46.924;7.114;2022-09-01T07:57:33;16.80;99.90
22532;DHT22;11432;46.924;7.114;2022-09-01T07:59:58;16.80;99.90
22532;DHT22;11432;46.924;7.114;2022-09-01T08:02:25;16.80;99.90
22532;DHT22;11432;46.924;7.114;2022-09-01T08:04:52;16.90;99.90
22532;DHT22;11432;46.924;7.114;2022-09-01T08:07:18;16.90;94.50
22532;DHT22;11432;46.924;7.114;2022-09-01T08:09:44;16.90;95.50
22532;DHT22;11432;46.924;7.114;2022-09-01T08:12:10;16.90;96.70
22532;DHT22;11432;46.924;7.114;2022-09-01T08:14:36;17.00;81.00
22532;DHT22;11432;46.924;7.114;2022-09-01T08:17:02;17.10;26.60
22532;DHT22;11432;46.924;7.114;2022-09-01T08:19:27;17.20;17.10
22532;DHT22;11432;46.924;7.114;2022-09-01T08:21:53;17.10;25.10
22532;DHT22;11432;46.924;7.114;2022-09-01T08:24:19;17.20;13.40
22532;DHT22;11432;46.924;7.114;2022-09-01T08:26:44;17.10;23.90
22532;DHT22;11432;46.924;7.114;2022-09-01T08:29:10;17.10;12.70
22532;DHT22;11432;46.924;7.114;2022-09-01T08:31:35;17.20;1.00
22532;DHT22;11432;46.924;7.114;2022-09-01T08:34:01;17.40;1.00
22532;DHT22;11432;46.924;7.114;2022-09-01T08:36:30;17.60;1.00
22532;DHT22;11432;46.924;7.114;2022-09-01T08:38:55;17.60;1.00
22532;DHT22;11432;46.924;7.114;2022-09-01T08:41:44;17.60;1.00
22532;DHT22;11432;46.924;7.114;2022-09-01T08:47:18;17.70;1.00
22532;DHT22;11432;46.924;7.114;2022-09-01T08:49:45;17.70;1.00
22532;DHT22;11432;46.924;7.114;2022-09-01T08:55:02;17.70;1.00
22532;DHT22;11432;46.924;7.114;2022-09-01T08:57:35;17.80;1.00
22532;DHT22;11432;46.924;7.114;2022-09-01T09:00:03;18.00;1.00
22532;DHT22;11432;46.924;7.114;2022-09-01T09:18:49;18.20;1.00
22532;DHT22;11432;46.924;7.114;2022-09-01T09:21:40;18.30;1.00
22532;DHT22;11432;46.924;7.114;2022-09-01T09:24:15;18.50;1.00
22532;DHT22;11432;46.924;7.114;2022-09-01T09:26:54;18.60;1.00
22532;DHT22;11432;46.924;7.114;2022-09-01T09:29:20;18.60;1.00
22532;DHT22;11432;46.924;7.114;2022-09-01T09:31:47;18.70;1.00
22532;DHT22;11432;46.924;7.114;2022-09-01T09:37:15;19.10;1.00
22532;DHT22;11432;46.924;7.114;2022-09-01T09:39:41;19.00;1.00
22532;DHT22;11432;46.924;7.114;2022-09-01T09:42:11;18.80;1.00
22532;DHT22;11432;46.924;7.114;2022-09-01T09:44:43;18.90;1.00
22532;DHT22;11432;46.924;7.114;2022-09-01T09:47:32;18.90;1.00
22532;DHT22;11432;46.924;7.114;2022-09-01T09:50:33;18.90;1.00
22532;DHT22;11432;46.924;7.114;2022-09-01T09:53:32;18.60;1.00
22532;DHT22;11432;46.924;7.114;2022-09-01T09:58:38;18.70;1.00
22532;DHT22;11432;46.924;7.114;2022-09-01T10:01:13;19.10;1.00
22532;DHT22;11432;46.924;7.114;2022-09-01T10:03:58;19.40;1.00
22532;DHT22;11432;46.924;7.114;2022-09-01T10:06:36;19.60;1.00
22532;DHT22;11432;46.924;7.114;2022-09-01T10:09:06;19.80;1.00
22532;DHT22;11432;46.924;7.114;2022-09-01T10:11:40;19.90;1.00
22532;DHT22;11432;46.924;7.114;2022-09-01T10:14:21;19.70;1.00
22532;DHT22;11432;46.924;7.114;2022-09-01T10:16:52;19.80;1.00
22532;DHT22;11432;46.924;7.114;2022-09-01T10:19:19;19.50;1.00
22532;DHT22;11432;46.924;7.114;2022-09-01T10:21:46;19.60;1.00
22532;DHT22;11432;46.924;7.114;2022-09-01T10:26:41;20.20;1.00
22532;DHT22;11432;46.924;7.114;2022-09-01T10:31:40;19.90;1.00
22532;DHT22;11432;46.924;7.114;2022-09-01T10:34:07;20.20;1.00
22532;DHT22;11432;46.924;7.114;2022-09-01T10:36:36;20.50;1.00
22532;DHT22;11432;46.924;7.114;2022-09-01T10:39:03;20.40;1.00
22532;DHT22;11432;46.924;7.114;2022-09-01T10:41:48;20.40;1.00
22532;DHT22;11432;46.924;7.114;2022-09-01T10:44:19;20.60;1.00
22532;DHT22;11432;46.924;7.114;2022-09-01T10:46:46;21.00;1.00
22532;DHT22;11432;46.924;7.114;2022-09-01T10:51:57;20.70;1.00
22532;DHT22;11432;46.924;7.114;2022-09-01T10:59:34;21.00;99.90
22532;DHT22;11432;46.924;7.114;2022-09-01T11:02:16;21.30;1.00
22532;DHT22;11432;46.924;7.114;2022-09-01T11:18:00;21.70;99.90
22532;DHT22;11432;46.924;7.114;2022-09-01T11:23:25;22.10;99.90
22532;DHT22;11432;46.924;7.114;2022-09-01T11:31:02;22.20;99.90
22532;DHT22;11432;46.924;7.114;2022-09-01T11:36:52;22.90;99.90
22532;DHT22;11432;46.924;7.114;2022-09-01T11:47:20;22.60;13.00
22532;DHT22;11432;46.924;7.114;2022-09-01T11:49:53;23.00;1.00
22532;DHT22;11432;46.924;7.114;2022-09-01T11:52:22;23.70;1.00
22532;DHT22;11432;46.924;7.114;2022-09-01T11:54:49;24.50;99.90
22532;DHT22;11432;46.924;7.114;2022-09-01T11:59:54;25.00;1.00
22532;DHT22;11432;46.924;7.114;2022-09-01T12:02:21;25.20;1.00
22532;DHT22;11432;46.924;7.114;2022-09-01T12:04:47;25.10;1.00
22532;DHT22;11432;46.924;7.114;2022-09-01T12:07:25;25.20;1.00
22532;DHT22;11432;46.924;7.114;2022-09-01T12:09:52;25.40;1.00
22532;DHT22;11432;46.924;7.114;2022-09-01T12:12:34;25.30;1.00
22532;DHT22;11432;46.924;7.114;2022-09-01T12:15:04;25.70;1.00
22532;DHT22;11432;46.924;7.114;2022-09-01T12:17:31;25.90;1.00
22532;DHT22;11432;46.924;7.114;2022-09-01T12:20:30;26.00;1.00
22532;DHT22;11432;46.924;7.114;2022-09-01T12:22:59;26.50;1.00
22532;DHT22;11432;46.924;7.114;2022-09-01T12:25:28;26.10;1.00
22532;DHT22;11432;46.924;7.114;2022-09-01T12:27:55;26.70;1.00
22532;DHT22;11432;46.924;7.114;2022-09-01T12:30:25;27.10;1.00
22532;DHT22;11432;46.924;7.114;2022-09-01T12:32:51;26.80;1.00
22532;DHT22;11432;46.924;7.114;2022-09-01T12:35:24;26.50;1.00
22532;DHT22;11432;46.924;7.114;2022-09-01T12:37:50;27.20;1.00
22532;DHT22;11432;46.924;7.114;2022-09-01T12:40:34;27.50;1.00
22532;DHT22;11432;46.924;7.114;2022-09-01T12:43:00;27.70;1.00
22532;DHT22;11432;46.924;7.114;2022-09-01T12:45:43;27.60;1.00
22532;DHT22;11432;46.924;7.114;2022-09-01T12:48:29;27.40;1.00
22532;DHT22;11432;46.924;7.114;2022-09-01T12:50:57;27.60;1.00
22532;DHT22;11432;46.924;7.114;2022-09-01T12:53:26;27.10;1.00
22532;DHT22;11432;46.924;7.114;2022-09-01T12:56:28;27.80;1.00
22532;DHT22;11432;46.924;7.114;2022-09-01T12:59:11;28.40;1.00
22532;DHT22;11432;46.924;7.114;2022-09-01T13:01:38;28.00;1.00
22532;DHT22;11432;46.924;7.114;2022-09-01T13:06:51;28.10;1.00
22532;DHT22;11432;46.924;7.114;2022-09-01T13:09:18;28.10;1.00
22532;DHT22;11432;46.924;7.114;2022-09-01T13:11:44;28.00;1.00
22532;DHT22;11432;46.924;7.114;2022-09-01T13:14:13;27.90;1.00
22532;DHT22;11432;46.924;7.114;2022-09-01T13:16:39;27.90;1.00
22532;DHT22;11432;46.924;7.114;2022-09-01T13:19:05;27.80;1.00
22532;DHT22;11432;46.924;7.114;2022-09-01T13:21:32;28.70;1.00
22532;DHT22;11432;46.924;7.114;2022-09-01T13:24:00;28.50;1.00
22532;DHT22;11432;46.924;7.114;2022-09-01T13:26:26;27.90;1.00
22532;DHT22;11432;46.924;7.114;2022-09-01T13:28:56;28.10;1.00
22532;DHT22;11432;46.924;7.114;2022-09-01T13:31:22;28.50;1.00
22532;DHT22;11432;46.924;7.114;2022-09-01T13:33:48;28.50;1.00
22532;DHT22;11432;46.924;7.114;2022-09-01T13:36:14;28.50;1.00
22532;DHT22;11432;46.924;7.114;2022-09-01T13:38:40;28.50;1.00
22532;DHT22;11432;46.924;7.114;2022-09-01T13:41:06;28.70;1.00
22532;DHT22;11432;46.924;7.114;2022-09-01T13:43:33;29.00;1.00
22532;DHT22;11432;46.924;7.114;2022-09-01T13:45:59;29.00;1.00
22532;DHT22;11432;46.924;7.114;2022-09-01T13:48:24;29.50;1.00
22532;DHT22;11432;46.924;7.114;2022-09-01T13:50:52;29.60;1.00
22532;DHT22;11432;46.924;7.114;2022-09-01T13:53:18;29.30;1.00
22532;DHT22;11432;46.924;7.114;2022-09-01T13:55:44;29.00;1.00
22532;DHT22;11432;46.924;7.114;2022-09-01T13:58:10;28.70;1.00
22532;DHT22;11432;46.924;7.114;2022-09-01T14:00:39;28.90;1.00
22532;DHT22;11432;46.924;7.114;2022-09-01T14:03:12;29.60;1.00
22532;DHT22;11432;46.924;7.114;2022-09-01T14:05:41;29.10;1.00
22532;DHT22;11432;46.924;7.114;2022-09-01T14:08:09;29.10;1.00
22532;DHT22;11432;46.924;7.114;2022-09-01T14:10:44;28.90;1.00
22532;DHT22;11432;46.924;7.114;2022-09-01T14:13:11;28.60;1.00
22532;DHT22;11432;46.924;7.114;2022-09-01T14:15:37;29.00;1.00
22532;DHT22;11432;46.924;7.114;2022-09-01T14:18:03;29.80;1.00
22532;DHT22;11432;46.924;7.114;2022-09-01T14:20:36;29.80;1.00
22532;DHT22;11432;46.924;7.114;2022-09-01T14:23:04;29.10;1.00
22532;DHT22;11432;46.924;7.114;2022-09-01T14:25:31;29.40;1.00
22532;DHT22;11432;46.924;7.114;2022-09-01T14:27:58;28.70;1.00
22532;DHT22;11432;46.924;7.114;2022-09-01T14:30:26;28.30;1.00
22532;DHT22;11432;46.924;7.114;2022-09-01T14:32:52;27.50;1.00
22532;DHT22;11432;46.924;7.114;2022-09-01T14:35:20;26.80;1.00
22532;DHT22;11432;46.924;7.114;2022-09-01T14:37:48;27.10;1.00
22532;DHT22;11432;46.924;7.114;2022-09-01T14:40:15;28.30;1.00
22532;DHT22;11432;46.924;7.114;2022-09-01T14:42:41;28.70;1.00
22532;DHT22;11432;46.924;7.114;2022-09-01T14:45:09;29.70;1.00
22532;DHT22;11432;46.924;7.114;2022-09-01T14:47:36;30.00;1.00
22532;DHT22;11432;46.924;7.114;2022-09-01T14:50:04;29.90;1.00
22532;DHT22;11432;46.924;7.114;2022-09-01T14:52:31;28.20;1.00
22532;DHT22;11432;46.924;7.114;2022-09-01T14:54:56;27.60;1.00
22532;DHT22;11432;46.924;7.114;2022-09-01T14:57:22;27.40;1.00
22532;DHT22;11432;46.924;7.114;2022-09-01T14:59:48;26.80;1.00
22532;DHT22;11432;46.924;7.114;2022-09-01T15:02:14;27.80;1.00
22532;DHT22;11432;46.924;7.114;2022-09-01T15:04:39;27.20;1.00
22532;DHT22;11432;46.924;7.114;2022-09-01T15:07:06;26.40;1.00
22532;DHT22;11432;46.924;7.114;2022-09-01T15:09:32;25.20;1.00
22532;DHT22;11432;46.924;7.114;2022-09-01T15:11:59;24.80;99.90
22532;DHT22;11432;46.924;7.114;2022-09-01T15:14:24;24.80;99.90
22532;DHT22;11432;46.924;7.114;2022-09-01T15:16:50;24.50;99.90
22532;DHT22;11432;46.924;7.114;2022-09-01T15:19:16;24.30;99.90
22532;DHT22;11432;46.924;7.114;2022-09-01T15:21:43;24.20;99.90
22532;DHT22;11432;46.924;7.114;2022-09-01T15:24:10;24.10;94.00
22532;DHT22;11432;46.924;7.114;2022-09-01T15:26:36;24.00;1.00
22532;DHT22;11432;46.924;7.114;2022-09-01T15:29:03;24.00;41.30
22532;DHT22;11432;46.924;7.114;2022-09-01T15:31:30;24.00;11.50
22532;DHT22;11432;46.924;7.114;2022-09-01T15:33:59;24.00;14.10
22532;DHT22;11432;46.924;7.114;2022-09-01T15:36:26;24.00;1.00
22532;DHT22;11432;46.924;7.114;2022-09-01T15:38:53;24.00;8.80
22532;DHT22;11432;46.924;7.114;2022-09-01T15:41:25;24.30;14.50
22532;DHT22;11432;46.924;7.114;2022-09-01T15:43:52;24.90;1.00
22532;DHT22;11432;46.924;7.114;2022-09-01T15:46:18;25.50;1.00
22532;DHT22;11432;46.924;7.114;2022-09-01T15:48:44;25.90;99.90
22532;DHT22;11432;46.924;7.114;2022-09-01T15:53:52;27.60;99.90
22532;DHT22;11432;46.924;7.114;2022-09-01T15:56:18;28.40;99.90
22532;DHT22;11432;46.924;7.114;2022-09-01T15:58:48;28.80;99.90
22532;DHT22;11432;46.924;7.114;2022-09-01T16:01:15;29.20;99.90
22532;DHT22;11432;46.924;7.114;2022-09-01T16:03:41;29.10;99.90
22532;DHT22;11432;46.924;7.114;2022-09-01T16:06:07;28.20;99.90
22532;DHT22;11432;46.924;7.114;2022-09-01T16:08:33;28.40;99.90
22532;DHT22;11432;46.924;7.114;2022-09-01T16:11:00;27.70;99.90
22532;DHT22;11432;46.924;7.114;2022-09-01T16:13:34;27.70;99.90
22532;DHT22;11432;46.924;7.114;2022-09-01T16:18:43;28.40;99.90
22532;DHT22;11432;46.924;7.114;2022-09-01T16:21:21;28.90;99.90
22532;DHT22;11432;46.924;7.114;2022-09-01T16:23:51;27.80;99.90
22532;DHT22;11432;46.924;7.114;2022-09-01T16:26:18;26.50;99.90
22532;DHT22;11432;46.924;7.114;2022-09-01T16:28:50;25.80;99.90
22532;DHT22;11432;46.924;7.114;2022-09-01T16:31:22;25.60;99.90
22532;DHT22;11432;46.924;7.114;2022-09-01T16:33:51;25.90;65.00
22532;DHT22;11432;46.924;7.114;2022-09-01T16:36:40;25.80;88.40
22532;DHT22;11432;46.924;7.114;2022-09-01T16:39:37;25.90;90.10
22532;DHT22;11432;46.924;7.114;2022-09-01T16:42:26;25.20;19.90
22532;DHT22;11432;46.924;7.114;2022-09-01T16:56:13;24.10;1.00
22532;DHT22;11432;46.924;7.114;2022-09-01T17:02:16;23.60;1.00
22532;DHT22;11432;46.924;7.114;2022-09-01T17:05:02;23.40;1.00
22532;DHT22;11432;46.924;7.114;2022-09-01T17:07:49;23.30;1.00
22532;DHT22;11432;46.924;7.114;2022-09-01T17:10:40;23.10;51.40
22532;DHT22;11432;46.924;7.114;2022-09-01T17:13:24;23.00;94.00
22532;DHT22;11432;46.924;7.114;2022-09-01T17:16:03;23.00;99.90
22532;DHT22;11432;46.924;7.114;2022-09-01T17:18:39;23.00;99.90
22532;DHT22;11432;46.924;7.114;2022-09-01T17:21:30;22.90;99.90
22532;DHT22;11432;46.924;7.114;2022-09-01T17:24:29;22.70;99.90
22532;DHT22;11432;46.924;7.114;2022-09-01T17:26:59;22.60;99.90
22532;DHT22;11432;46.924;7.114;2022-09-01T17:34:52;22.50;1.00
22532;DHT22;11432;46.924;7.114;2022-09-01T17:40:16;22.20;83.20
22532;DHT22;11432;46.924;7.114;2022-09-01T17:45:35;22.00;99.90
22532;DHT22;11432;46.924;7.114;2022-09-01T17:53:55;21.80;99.90